Time;durP1;ratioP1;P1;durP2;ratioP2;P2;SDS_P1;SDS_P2;PMS_P1;PMS_P2;Temp;Humidity;BMP_temperature;BMP_pressure;BME280_temperature;BME280_humidity;BME280_pressure;Samples;Min_cycle;Max_cycle;Signal;HPM_P1;HPM_P2
2021/10/08 00:01:42;;;;;;;21.30;14.93;;;9.90;80.40;;;;;;2627040;30;20863;-75
2021/10/08 00:04:08;;;;;;;24.43;16.47;;;9.80;81.00;;;;;;2629566;30;20198;-75
2021/10/08 00:06:35;;;;;;;31.20;17.17;;;9.60;81.60;;;;;;2628245;30;22161;-76
2021/10/08 00:09:00;;;;;;;26.83;16.37;;;9.60;81.60;;;;;;2629540;30;20201;-75
2021/10/08 00:11:32;;;;;;;22.20;16.70;;;9.60;81.40;;;;;;2627275;38;20363;-76
2021/10/08 00:13:58;;;;;;;22.17;15.50;;;9.70;80.90;;;;;;2626730;38;20217;-76
2021/10/08 00:16:24;;;;;;;26.57;17.57;;;9.70;80.70;;;;;;2627510;30;20458;-74
2021/10/08 00:18:51;;;;;;;23.73;17.47;;;9.90;80.60;;;;;;2626869;30;20201;-75
2021/10/08 00:21:17;;;;;;;23.50;15.00;;;9.90;80.20;;;;;;2627485;30;20182;-76
2021/10/08 00:23:43;;;;;;;23.20;16.47;;;9.80;80.20;;;;;;2628155;38;20889;-76
2021/10/08 00:26:09;;;;;;;25.87;15.27;;;9.50;81.10;;;;;;2627117;38;20371;-75
2021/10/08 00:28:35;;;;;;;27.43;16.93;;;9.60;81.20;;;;;;2626849;38;20214;-76
2021/10/08 00:31:01;;;;;;;25.40;15.93;;;9.50;81.50;;;;;;2628924;30;20197;-75
2021/10/08 00:33:28;;;;;;;24.63;16.00;;;9.60;81.30;;;;;;2628012;30;20375;-76
2021/10/08 00:35:54;;;;;;;24.23;16.97;;;9.60;81.70;;;;;;2626648;30;20592;-75
2021/10/08 00:38:20;;;;;;;23.07;14.90;;;9.60;81.30;;;;;;2628980;30;20383;-76
2021/10/08 00:40:47;;;;;;;28.90;16.47;;;9.80;81.00;;;;;;2628357;30;20197;-76
2021/10/08 00:43:21;;;;;;;28.97;17.10;;;9.90;80.50;;;;;;2627856;38;20489;-77
2021/10/08 00:45:48;;;;;;;24.90;16.13;;;9.90;80.30;;;;;;2627547;38;20367;-75
2021/10/08 00:48:15;;;;;;;24.80;16.60;;;9.80;80.50;;;;;;2627181;38;20378;-75
2021/10/08 00:50:47;;;;;;;27.70;16.30;;;9.70;81.00;;;;;;2627810;30;20371;-75
2021/10/08 00:53:14;;;;;;;22.70;16.33;;;9.70;80.60;;;;;;2628401;30;20363;-76
2021/10/08 00:55:45;;;;;;;22.50;15.73;;;9.50;81.10;;;;;;2627002;38;20885;-77
2021/10/08 00:58:15;;;;;;;21.37;14.90;;;9.60;80.80;;;;;;2626978;38;20371;-76
2021/10/08 01:00:43;;;;;;;24.90;15.50;;;9.50;80.90;;;;;;2627771;30;20415;-78
2021/10/08 01:03:10;;;;;;;24.30;16.60;;;9.40;80.90;;;;;;2628857;30;20967;-78
2021/10/08 01:05:37;;;;;;;24.40;16.87;;;9.30;81.40;;;;;;2628265;30;20349;-76
2021/10/08 01:08:03;;;;;;;26.20;15.43;;;9.40;81.20;;;;;;2625549;38;20502;-79
2021/10/08 01:10:32;;;;;;;21.27;15.47;;;9.50;80.70;;;;;;2623762;30;20437;-79
2021/10/08 01:12:59;;;;;;;25.43;16.13;;;9.40;81.00;;;;;;2625461;38;20443;-77
2021/10/08 01:15:25;;;;;;;31.00;16.27;;;9.30;81.20;;;;;;2625956;38;20486;-77
2021/10/08 01:17:55;;;;;;;19.43;15.33;;;9.30;80.90;;;;;;2628528;30;20391;-77
2021/10/08 01:20:27;;;;;;;23.10;15.23;;;9.30;80.90;;;;;;2628036;30;20360;-78
2021/10/08 01:22:57;;;;;;;21.13;14.50;;;9.30;80.90;;;;;;2627598;30;20395;-77
2021/10/08 01:25:27;;;;;;;27.43;15.13;;;9.40;80.40;;;;;;2627622;30;20375;-77
2021/10/08 01:27:53;;;;;;;22.90;14.40;;;9.50;80.10;;;;;;2627334;30;20375;-77
2021/10/08 01:30:20;;;;;;;22.83;14.63;;;9.40;80.20;;;;;;2627445;30;20758;-77
2021/10/08 01:32:47;;;;;;;23.77;14.80;;;9.40;80.30;;;;;;2626925;38;20363;-77
2021/10/08 01:35:14;;;;;;;20.80;13.33;;;9.40;80.30;;;;;;2627020;38;20383;-78
2021/10/08 01:37:40;;;;;;;17.67;14.53;;;9.30;80.30;;;;;;2626401;30;20825;-77
2021/10/08 01:40:07;;;;;;;23.80;16.03;;;9.30;80.50;;;;;;2626992;38;20364;-78
2021/10/08 01:42:33;;;;;;;23.60;15.27;;;9.20;80.50;;;;;;2628545;30;20370;-78
2021/10/08 01:44:59;;;;;;;20.43;12.53;;;9.20;80.60;;;;;;2627689;38;20920;-76
2021/10/08 01:47:27;;;;;;;19.53;14.00;;;9.20;80.60;;;;;;2626728;30;20606;-78
2021/10/08 01:49:54;;;;;;;23.43;14.97;;;9.30;79.90;;;;;;2628123;30;20725;-78
2021/10/08 01:52:21;;;;;;;19.20;13.70;;;9.40;79.30;;;;;;2626291;38;20357;-77
2021/10/08 01:54:47;;;;;;;22.73;15.13;;;9.50;79.60;;;;;;2626952;30;20357;-77
2021/10/08 01:57:13;;;;;;;18.57;13.50;;;9.40;79.60;;;;;;2628085;30;20362;-78
2021/10/08 01:59:40;;;;;;;20.83;13.40;;;9.20;79.90;;;;;;2627661;30;20370;-78
2021/10/08 02:02:12;;;;;;;22.63;14.03;;;9.20;80.20;;;;;;2626179;38;20350;-78
2021/10/08 02:04:38;;;;;;;26.40;14.37;;;9.10;80.30;;;;;;2626015;38;20897;-77
2021/10/08 02:07:04;;;;;;;20.17;12.87;;;8.90;80.70;;;;;;2626469;30;20505;-78
2021/10/08 02:09:30;;;;;;;17.03;14.10;;;9.00;80.50;;;;;;2626844;30;20612;-77
2021/10/08 02:11:57;;;;;;;15.53;11.57;;;9.00;80.30;;;;;;2627855;30;20622;-77
2021/10/08 02:14:23;;;;;;;20.63;13.40;;;9.10;80.20;;;;;;2628017;30;20940;-77
2021/10/08 02:16:49;;;;;;;16.70;12.03;;;9.00;80.20;;;;;;2627643;38;20355;-79
2021/10/08 02:19:16;;;;;;;18.50;12.73;;;9.10;80.10;;;;;;2625966;38;20781;-78
2021/10/08 02:21:41;;;;;;;15.43;12.23;;;9.10;79.90;;;;;;2626938;30;20595;-78
2021/10/08 02:24:08;;;;;;;22.60;13.60;;;9.10;79.80;;;;;;2627423;30;20359;-79
2021/10/08 02:26:34;;;;;;;16.20;12.50;;;8.90;79.90;;;;;;2627887;30;20370;-78
2021/10/08 02:29:01;;;;;;;20.80;12.83;;;8.90;80.00;;;;;;2627584;30;20961;-78
2021/10/08 02:31:28;;;;;;;18.30;13.30;;;8.90;79.80;;;;;;2627288;30;20212;-78
2021/10/08 02:33:55;;;;;;;16.03;12.70;;;8.90;79.90;;;;;;2627601;30;20883;-80
2021/10/08 02:36:21;;;;;;;19.97;14.47;;;8.90;79.80;;;;;;2626748;30;20478;-79
2021/10/08 02:38:46;;;;;;;17.50;13.40;;;9.00;79.50;;;;;;2627341;30;20924;-78
2021/10/08 02:41:12;;;;;;;19.07;12.83;;;9.00;79.70;;;;;;2627234;30;20260;-78
2021/10/08 02:43:39;;;;;;;16.97;12.20;;;8.90;80.00;;;;;;2628714;30;20569;-77
2021/10/08 02:46:06;;;;;;;16.80;12.30;;;8.70;80.00;;;;;;2627679;30;20189;-77
2021/10/08 02:48:35;;;;;;;17.13;13.10;;;8.70;81.00;;;;;;2626490;30;20486;-78
2021/10/08 02:51:01;;;;;;;22.03;13.30;;;8.40;81.10;;;;;;2626301;38;20358;-78
2021/10/08 02:53:26;;;;;;;17.53;12.77;;;8.40;81.40;;;;;;2627171;30;20350;-79
2021/10/08 02:55:53;;;;;;;20.73;12.90;;;8.60;80.60;;;;;;2626692;30;20765;-79
2021/10/08 02:58:19;;;;;;;18.80;12.57;;;8.80;80.10;;;;;;2627389;30;20206;-78
2021/10/08 03:00:45;;;;;;;20.23;12.10;;;8.70;79.80;;;;;;2628244;30;20793;-78
2021/10/08 03:03:11;;;;;;;17.63;12.17;;;8.70;79.60;;;;;;2626677;31;20773;-78
2021/10/08 03:05:37;;;;;;;18.87;13.83;;;8.60;79.80;;;;;;2626590;30;20673;-79
2021/10/08 03:08:06;;;;;;;15.60;13.13;;;8.60;80.10;;;;;;2627768;30;20369;-78
2021/10/08 03:10:31;;;;;;;15.90;12.33;;;8.60;80.00;;;;;;2628395;30;20456;-78
2021/10/08 03:12:57;;;;;;;18.40;12.67;;;8.50;80.40;;;;;;2627859;30;20351;-78
2021/10/08 03:15:23;;;;;;;17.80;13.20;;;8.50;80.30;;;;;;2627455;30;20735;-79
2021/10/08 03:17:49;;;;;;;26.07;15.53;;;8.40;80.60;;;;;;2626976;30;20907;-78
2021/10/08 03:20:14;;;;;;;17.57;12.90;;;8.20;81.10;;;;;;2629354;30;20581;-79
2021/10/08 03:22:40;;;;;;;21.03;14.53;;;8.40;80.80;;;;;;2627292;30;20560;-79
2021/10/08 03:25:09;;;;;;;18.80;14.20;;;8.20;81.20;;;;;;2626571;38;20217;-78
2021/10/08 03:27:36;;;;;;;15.87;13.07;;;8.40;80.60;;;;;;2626432;38;20367;-78
2021/10/08 03:30:06;;;;;;;20.10;15.00;;;8.40;80.40;;;;;;2626631;38;20375;-79
2021/10/08 03:32:31;;;;;;;20.60;15.53;;;8.50;80.20;;;;;;2627224;38;20387;-78
2021/10/08 03:34:58;;;;;;;17.03;13.90;;;8.50;80.10;;;;;;2627761;30;20715;-78
2021/10/08 03:37:31;;;;;;;19.00;14.13;;;8.30;80.60;;;;;;2626994;30;20185;-78
2021/10/08 03:39:57;;;;;;;21.20;14.10;;;8.20;81.00;;;;;;2625517;38;20382;-79
2021/10/08 03:42:23;;;;;;;21.87;15.27;;;8.20;81.10;;;;;;2627488;30;20458;-79
2021/10/08 03:44:57;;;;;;;17.20;13.07;;;8.30;80.90;;;;;;2627645;30;20587;-78
2021/10/08 03:47:33;;;;;;;19.53;14.33;;;8.30;80.60;;;;;;2626357;38;20372;-79
2021/10/08 03:49:59;;;;;;;22.87;14.00;;;8.30;80.20;;;;;;2626783;38;20494;-79
2021/10/08 03:52:28;;;;;;;18.07;13.43;;;8.40;80.10;;;;;;2627749;30;20417;-79
2021/10/08 03:54:53;;;;;;;14.67;12.67;;;8.40;80.00;;;;;;2628714;30;20190;-80
2021/10/08 03:57:19;;;;;;;15.83;11.20;;;8.40;80.10;;;;;;2628208;30;20961;-79
2021/10/08 03:59:45;;;;;;;21.10;13.07;;;8.30;80.00;;;;;;2628417;30;20170;-79
2021/10/08 04:02:11;;;;;;;20.10;13.80;;;8.20;80.20;;;;;;2627726;30;20189;-79
2021/10/08 04:04:38;;;;;;;19.50;13.70;;;8.20;80.60;;;;;;2628409;30;20689;-79
2021/10/08 04:07:03;;;;;;;16.47;11.57;;;8.00;81.00;;;;;;2626994;38;20406;-80
2021/10/08 04:09:29;;;;;;;17.83;11.57;;;8.20;80.70;;;;;;2627544;30;20379;-80
2021/10/08 04:11:55;;;;;;;18.87;12.47;;;8.20;80.20;;;;;;2628435;30;20706;-80
2021/10/08 04:14:20;;;;;;;16.20;13.00;;;8.30;80.10;;;;;;2627351;30;20182;-79
2021/10/08 04:17:12;;;;;;;21.40;13.37;;;8.30;79.80;;;;;;2627350;38;20198;-79
2021/10/08 04:19:38;;;;;;;17.27;12.47;;;8.30;79.80;;;;;;2626505;30;20189;-79
2021/10/08 04:22:04;;;;;;;16.07;13.50;;;8.30;79.80;;;;;;2626827;38;20409;-79
2021/10/08 04:24:31;;;;;;;20.43;12.80;;;8.20;80.00;;;;;;2627051;38;20188;-81
2021/10/08 04:26:56;;;;;;;13.80;11.83;;;8.10;80.30;;;;;;2626774;30;20182;-79
2021/10/08 04:29:22;;;;;;;21.10;13.23;;;8.10;80.10;;;;;;2626384;38;20363;-79
2021/10/08 04:31:47;;;;;;;17.77;13.00;;;8.10;80.30;;;;;;2627401;38;20718;-80
2021/10/08 04:34:13;;;;;;;15.07;10.90;;;8.20;80.00;;;;;;2627486;30;20178;-79
2021/10/08 04:36:40;;;;;;;21.27;12.20;;;8.10;79.80;;;;;;2625694;30;20190;-80
2021/10/08 04:39:06;;;;;;;17.57;12.50;;;8.10;79.90;;;;;;2626899;31;20222;-79
2021/10/08 04:41:32;;;;;;;16.20;11.13;;;8.10;80.10;;;;;;2626632;38;20906;-79
2021/10/08 04:43:59;;;;;;;16.30;12.33;;;7.90;80.60;;;;;;2626494;30;20352;-79
2021/10/08 04:46:25;;;;;;;16.87;12.40;;;7.90;80.70;;;;;;2626324;38;20377;-78
2021/10/08 04:48:51;;;;;;;16.33;11.77;;;8.00;80.20;;;;;;2626632;30;20482;-79
2021/10/08 04:51:17;;;;;;;16.60;13.33;;;8.00;80.10;;;;;;2626859;30;20194;-78
2021/10/08 04:53:43;;;;;;;19.93;13.73;;;8.10;80.00;;;;;;2626514;30;20717;-79
2021/10/08 04:56:08;;;;;;;22.53;14.40;;;8.00;80.00;;;;;;2627615;30;20391;-79
2021/10/08 04:58:34;;;;;;;20.77;13.30;;;7.80;80.60;;;;;;2628038;30;20516;-79
2021/10/08 05:01:00;;;;;;;18.07;13.00;;;7.70;81.00;;;;;;2627991;30;20182;-79
2021/10/08 05:03:25;;;;;;;18.43;12.87;;;7.60;81.40;;;;;;2628607;30;20234;-79
2021/10/08 05:05:52;;;;;;;18.50;13.00;;;7.80;81.00;;;;;;2628112;30;20181;-79
2021/10/08 05:08:20;;;;;;;21.10;14.17;;;7.80;80.80;;;;;;2627300;30;20559;-80
2021/10/08 05:10:46;;;;;;;18.37;12.87;;;7.80;80.40;;;;;;2629103;30;20366;-80
2021/10/08 05:13:13;;;;;;;16.03;12.83;;;7.80;80.10;;;;;;2627951;30;20358;-78
2021/10/08 05:15:39;;;;;;;16.73;12.83;;;7.80;80.40;;;;;;2627640;30;20473;-80
2021/10/08 05:18:05;;;;;;;17.70;13.30;;;7.60;80.60;;;;;;2626153;30;20363;-79
2021/10/08 05:20:31;;;;;;;19.70;13.10;;;7.70;80.80;;;;;;2628059;30;20414;-80
2021/10/08 05:22:57;;;;;;;20.67;13.23;;;7.80;81.10;;;;;;2627371;38;20181;-79
2021/10/08 05:25:24;;;;;;;16.40;12.63;;;7.80;80.20;;;;;;2627666;30;20993;-80
2021/10/08 05:27:49;;;;;;;18.17;12.60;;;7.70;80.60;;;;;;2626649;30;20196;-80
2021/10/08 05:30:15;;;;;;;18.37;14.10;;;7.70;81.20;;;;;;2627656;30;20399;-81
2021/10/08 05:32:42;;;;;;;19.03;13.33;;;7.60;80.80;;;;;;2628010;30;20189;-80
2021/10/08 05:35:10;;;;;;;15.87;12.20;;;7.80;80.30;;;;;;2628467;30;20346;-81
2021/10/08 05:37:35;;;;;;;17.13;12.43;;;7.60;80.50;;;;;;2627642;30;21009;-79
2021/10/08 05:40:05;;;;;;;15.27;12.83;;;7.60;80.70;;;;;;2626421;30;20411;-80
2021/10/08 05:42:33;;;;;;;17.23;13.27;;;7.60;80.80;;;;;;2628477;30;20612;-79
2021/10/08 05:44:59;;;;;;;20.80;14.80;;;7.70;80.50;;;;;;2627087;30;20442;-80
2021/10/08 05:47:26;;;;;;;17.80;13.60;;;7.70;80.60;;;;;;2627409;30;20378;-81
2021/10/08 05:49:52;;;;;;;17.90;13.67;;;7.70;80.90;;;;;;2629844;30;20383;-81
2021/10/08 05:52:19;;;;;;;17.10;12.90;;;7.90;80.20;;;;;;2628777;30;20908;-79
2021/10/08 05:54:45;;;;;;;22.20;15.37;;;8.00;79.80;;;;;;2626672;30;20379;-81
2021/10/08 05:57:12;;;;;;;20.30;14.67;;;8.00;79.70;;;;;;2627000;30;20788;-79
2021/10/08 05:59:41;;;;;;;20.70;14.70;;;8.10;79.60;;;;;;2628197;30;20174;-81
2021/10/08 06:02:07;;;;;;;22.10;14.60;;;7.90;80.10;;;;;;2626925;30;20359;-79
2021/10/08 06:04:33;;;;;;;20.17;14.67;;;8.00;80.30;;;;;;2627221;30;20359;-79
2021/10/08 06:07:00;;;;;;;16.67;13.77;;;7.90;80.20;;;;;;2627491;30;20403;-79
2021/10/08 06:09:25;;;;;;;19.17;14.20;;;8.10;79.90;;;;;;2626439;38;20610;-79
2021/10/08 06:11:51;;;;;;;20.27;14.70;;;8.00;80.20;;;;;;2626007;38;20398;-80
2021/10/08 06:14:17;;;;;;;23.07;15.80;;;8.10;79.90;;;;;;2624925;30;20182;-78
2021/10/08 06:16:42;;;;;;;21.57;14.30;;;8.10;79.80;;;;;;2626659;30;20559;-80
2021/10/08 06:19:12;;;;;;;19.77;15.23;;;8.10;80.30;;;;;;2623924;30;20212;-80
2021/10/08 06:21:38;;;;;;;16.13;14.40;;;8.30;80.20;;;;;;2624311;30;20387;-79
2021/10/08 06:24:04;;;;;;;18.77;14.40;;;8.40;79.80;;;;;;2623653;38;20378;-79
2021/10/08 06:26:29;;;;;;;21.60;15.00;;;8.30;81.10;;;;;;2623745;31;20200;-80
2021/10/08 06:28:55;;;;;;;21.67;17.80;;;8.50;80.10;;;;;;2624874;38;20394;-80
2021/10/08 06:31:21;;;;;;;23.13;16.90;;;8.50;80.50;;;;;;2624742;38;20636;-80
2021/10/08 06:33:47;;;;;;;22.23;16.13;;;8.40;81.40;;;;;;2623548;30;20218;-80
2021/10/08 06:36:13;;;;;;;26.60;17.33;;;8.80;80.30;;;;;;2624190;30;20470;-80
2021/10/08 06:38:40;;;;;;;24.87;17.60;;;8.80;80.60;;;;;;2624804;30;20181;-79
2021/10/08 06:41:06;;;;;;;26.70;18.63;;;9.00;80.30;;;;;;2623884;30;20449;-81
2021/10/08 06:43:31;;;;;;;25.23;18.47;;;9.10;80.30;;;;;;2625507;30;20874;-80
2021/10/08 06:45:58;;;;;;;29.40;19.30;;;9.40;79.60;;;;;;2626183;30;20573;-80
2021/10/08 06:48:24;;;;;;;23.97;16.90;;;9.60;79.30;;;;;;2623650;30;20712;-81
2021/10/08 06:50:49;;;;;;;29.63;18.60;;;9.80;79.20;;;;;;2623033;30;20399;-79
2021/10/08 06:53:15;;;;;;;26.77;19.23;;;10.30;81.20;;;;;;2623285;38;20285;-81
2021/10/08 06:55:41;;;;;;;25.03;19.37;;;12.50;77.90;;;;;;2624387;30;20170;-81
2021/10/08 06:58:07;;;;;;;20.23;16.47;;;14.60;72.90;;;;;;2625597;38;20182;-81
2021/10/08 07:00:34;;;;;;;23.03;16.37;;;16.70;69.00;;;;;;2626183;30;20355;-79
2021/10/08 07:03:00;;;;;;;19.47;15.03;;;18.00;67.70;;;;;;2626727;30;20178;-80
2021/10/08 07:05:26;;;;;;;20.30;15.10;;;19.30;65.50;;;;;;2627669;30;20397;-81
2021/10/08 07:07:54;;;;;;;20.40;14.67;;;20.20;64.30;;;;;;2627616;30;20929;-79
2021/10/08 07:10:20;;;;;;;19.00;15.00;;;21.30;62.90;;;;;;2627469;30;20386;-80
2021/10/08 07:12:47;;;;;;;21.30;14.27;;;22.20;61.60;;;;;;2627512;30;20953;-79
2021/10/08 07:15:18;;;;;;;20.13;13.37;;;22.70;60.60;;;;;;2626971;30;20363;-79
2021/10/08 07:17:47;;;;;;;15.60;12.30;;;23.10;58.70;;;;;;2626758;30;20924;-80
2021/10/08 07:20:14;;;;;;;18.73;13.93;;;23.30;57.90;;;;;;2627306;30;20427;-79
2021/10/08 07:22:42;;;;;;;16.13;13.53;;;23.00;56.10;;;;;;2626601;30;20390;-80
2021/10/08 07:25:10;;;;;;;23.87;13.80;;;23.00;57.90;;;;;;2627684;30;20936;-79
2021/10/08 07:27:37;;;;;;;17.50;12.80;;;23.00;55.40;;;;;;2626321;38;20419;-80
2021/10/08 07:30:04;;;;;;;18.60;13.50;;;23.30;54.70;;;;;;2644670;30;21025;-78
2021/10/08 07:32:30;;;;;;;13.87;10.87;;;23.50;52.70;;;;;;2627514;30;20899;-79
2021/10/08 07:34:56;;;;;;;17.03;12.77;;;23.60;51.90;;;;;;2626750;30;20359;-79
2021/10/08 07:37:23;;;;;;;15.47;12.53;;;24.30;50.60;;;;;;2625599;38;20367;-78
2021/10/08 07:39:49;;;;;;;16.20;14.33;;;24.40;48.50;;;;;;2627479;38;20195;-80
2021/10/08 07:42:15;;;;;;;17.67;13.20;;;24.30;47.50;;;;;;2628768;30;20367;-79
2021/10/08 07:44:41;;;;;;;15.40;13.13;;;24.50;47.10;;;;;;2627786;30;20625;-77
2021/10/08 07:47:08;;;;;;;16.63;12.93;;;24.70;46.00;;;;;;2627907;30;20375;-80
2021/10/08 07:49:34;;;;;;;18.57;13.10;;;24.50;44.00;;;;;;2628106;30;20236;-78
2021/10/08 07:52:00;;;;;;;13.90;12.07;;;24.60;44.50;;;;;;2626785;38;20403;-77
2021/10/08 07:54:26;;;;;;;14.43;11.90;;;24.50;43.90;;;;;;2627087;30;20321;-78
2021/10/08 07:56:52;;;;;;;20.73;13.70;;;24.60;45.00;;;;;;2626851;30;20521;-76
2021/10/08 07:59:18;;;;;;;19.33;13.30;;;24.90;44.10;;;;;;2625531;38;20194;-77
2021/10/08 08:01:43;;;;;;;14.17;11.67;;;25.00;43.20;;;;;;2625736;30;20357;-78
2021/10/08 08:04:09;;;;;;;12.60;11.20;;;24.70;43.70;;;;;;2626350;38;20183;-77
2021/10/08 08:06:35;;;;;;;13.27;10.50;;;24.70;43.20;;;;;;2626203;30;20190;-77
2021/10/08 08:09:00;;;;;;;20.60;12.23;;;25.20;43.00;;;;;;2626787;30;20222;-76
2021/10/08 08:11:26;;;;;;;15.33;12.13;;;25.40;42.60;;;;;;2626437;30;20312;-76
2021/10/08 08:13:53;;;;;;;12.17;10.93;;;26.10;41.70;;;;;;2627535;30;20175;-75
2021/10/08 08:16:19;;;;;;;13.07;10.70;;;26.10;40.90;;;;;;2627247;30;20189;-77
2021/10/08 08:18:45;;;;;;;14.23;11.27;;;26.40;40.60;;;;;;2626453;30;20769;-75
2021/10/08 08:21:10;;;;;;;11.80;10.60;;;26.70;40.60;;;;;;2625536;38;20186;-76
2021/10/08 08:23:36;;;;;;;12.93;10.30;;;27.10;39.20;;;;;;2628266;30;20200;-76
2021/10/08 08:26:01;;;;;;;10.07;9.07;;;27.70;38.70;;;;;;2701861;30;20606;-76
2021/10/08 08:28:28;;;;;;;15.83;10.70;;;27.80;38.30;;;;;;2626095;38;20318;-76
2021/10/08 08:30:55;;;;;;;10.60;9.50;;;27.90;38.00;;;;;;2626808;30;20193;-76
2021/10/08 08:33:22;;;;;;;10.30;9.27;;;27.90;39.50;;;;;;2626822;38;20371;-76
2021/10/08 08:35:48;;;;;;;10.70;9.60;;;28.10;38.50;;;;;;2627502;30;20874;-75
2021/10/08 08:38:16;;;;;;;12.03;9.03;;;28.50;37.80;;;;;;2627476;30;20505;-75
2021/10/08 08:40:42;;;;;;;11.20;9.70;;;28.40;37.10;;;;;;2627586;38;20202;-75
2021/10/08 08:43:08;;;;;;;12.20;9.00;;;28.00;38.00;;;;;;2628820;30;20741;-76
2021/10/08 08:45:34;;;;;;;9.80;8.53;;;28.00;38.00;;;;;;2627685;30;20190;-76
2021/10/08 08:48:04;;;;;;;9.77;8.67;;;28.30;37.30;;;;;;2627157;30;20178;-75
2021/10/08 08:50:31;;;;;;;11.37;10.13;;;28.20;37.50;;;;;;2628105;30;20174;-78
2021/10/08 08:52:57;;;;;;;13.23;10.37;;;28.30;37.50;;;;;;2627433;30;20383;-75
2021/10/08 08:55:23;;;;;;;12.10;10.80;;;28.50;37.80;;;;;;2626671;38;20415;-75
2021/10/08 08:57:49;;;;;;;10.70;9.60;;;29.10;36.80;;;;;;2626173;38;20370;-75
2021/10/08 09:00:17;;;;;;;13.30;11.20;;;29.00;36.30;;;;;;2627596;30;20850;-75
2021/10/08 09:03:03;;;;;;;13.40;10.77;;;28.90;37.50;;;;;;2626133;38;20375;-75
2021/10/08 09:05:31;;;;;;;11.93;9.57;;;29.10;37.10;;;;;;2628216;30;20896;-75
2021/10/08 09:08:08;;;;;;;14.30;10.43;;;29.50;36.60;;;;;;2627389;30;20347;-75
2021/10/08 09:10:36;;;;;;;12.13;10.80;;;29.40;36.00;;;;;;2627097;30;20402;-76
2021/10/08 09:13:04;;;;;;;12.40;11.17;;;29.50;36.30;;;;;;2628535;30;20437;-76
2021/10/08 09:15:44;;;;;;;12.27;9.87;;;29.50;36.40;;;;;;2626734;30;20969;-76
2021/10/08 09:18:12;;;;;;;11.97;10.77;;;29.70;35.80;;;;;;2626050;30;20410;-75
2021/10/08 09:20:39;;;;;;;14.17;10.40;;;30.20;34.60;;;;;;2628194;30;20367;-77
2021/10/08 09:23:06;;;;;;;11.90;10.60;;;30.10;35.70;;;;;;2627692;30;20441;-75
2021/10/08 09:25:37;;;;;;;10.30;9.30;;;30.00;35.30;;;;;;2626500;38;20474;-76
2021/10/08 09:28:11;;;;;;;11.77;9.23;;;30.10;34.90;;;;;;2627172;30;20399;-75
2021/10/08 09:30:42;;;;;;;12.57;9.80;;;29.40;35.60;;;;;;2627533;30;20411;-76
2021/10/08 09:33:11;;;;;;;11.00;9.90;;;29.10;36.70;;;;;;2629006;30;20383;-75
2021/10/08 09:35:38;;;;;;;13.17;8.77;;;29.40;36.40;;;;;;2627110;38;20386;-76
2021/10/08 09:38:09;;;;;;;9.90;8.87;;;29.50;36.20;;;;;;2626410;38;21300;-76
2021/10/08 09:40:45;;;;;;;10.83;9.73;;;29.50;35.30;;;;;;2627283;30;20391;-76
2021/10/08 09:43:32;;;;;;;10.60;9.43;;;29.70;35.80;;;;;;2627007;38;20379;-77
2021/10/08 09:46:03;;;;;;;11.00;9.90;;;30.10;35.90;;;;;;2626654;38;20548;-76
2021/10/08 09:48:42;;;;;;;13.03;9.83;;;30.30;34.30;;;;;;2627114;30;20919;-77
2021/10/08 09:51:13;;;;;;;9.37;8.57;;;30.00;36.10;;;;;;2629014;30;20390;-77
2021/10/08 09:53:48;;;;;;;11.10;8.40;;;30.80;35.00;;;;;;2628298;30;20367;-79
2021/10/08 09:56:37;;;;;;;10.43;9.27;;;30.30;35.70;;;;;;2627890;30;20442;-78
2021/10/08 09:59:05;;;;;;;9.27;8.40;;;30.60;35.00;;;;;;2627769;30;20361;-78
2021/10/08 10:01:34;;;;;;;10.37;8.90;;;30.40;34.10;;;;;;2628209;30;20366;-78
2021/10/08 10:04:04;;;;;;;9.47;8.57;;;30.40;34.70;;;;;;2628082;38;20386;-78
2021/10/08 10:07:13;;;;;;;10.70;8.90;;;29.90;35.20;;;;;;2627329;30;20386;-80
2021/10/08 10:10:41;;;;;;;10.20;8.03;;;29.60;35.90;;;;;;2627110;30;20383;-80
2021/10/08 10:17:07;;;;;;;10.17;8.53;;;30.10;34.80;;;;;;2626957;38;20420;-80
2021/10/08 10:19:37;;;;;;;7.60;6.90;;;30.00;34.00;;;;;;2628165;30;20379;-81
2021/10/08 10:22:03;;;;;;;14.83;8.40;;;28.40;36.20;;;;;;2626857;38;20366;-79
2021/10/08 10:24:30;;;;;;;7.90;6.93;;;28.60;36.70;;;;;;2628329;30;20363;-76
2021/10/08 10:26:56;;;;;;;8.87;7.93;;;29.00;35.40;;;;;;2626723;30;20350;-77
2021/10/08 10:29:22;;;;;;;9.87;7.83;;;29.70;34.80;;;;;;2627588;30;20394;-77
2021/10/08 10:31:49;;;;;;;11.80;8.70;;;30.10;35.20;;;;;;2627232;30;20865;-79
2021/10/08 10:34:16;;;;;;;10.37;9.00;;;30.00;35.30;;;;;;2628439;30;20371;-78
2021/10/08 10:36:43;;;;;;;8.73;7.83;;;30.20;35.30;;;;;;2627258;30;20363;-79
2021/10/08 10:39:12;;;;;;;10.83;8.60;;;29.90;34.80;;;;;;2627199;38;20375;-78
2021/10/08 10:41:45;;;;;;;9.43;8.53;;;30.30;34.90;;;;;;2626398;38;20373;-79
2021/10/08 10:44:18;;;;;;;8.10;7.30;;;30.60;34.90;;;;;;2628830;30;20877;-80
2021/10/08 10:47:00;;;;;;;8.73;7.63;;;31.30;33.50;;;;;;2628022;30;20367;-78
2021/10/08 10:49:39;;;;;;;9.90;7.63;;;30.90;33.00;;;;;;2628589;30;20379;-77
2021/10/08 10:52:15;;;;;;;8.40;6.50;;;30.40;33.40;;;;;;2627406;38;21259;-77
2021/10/08 10:54:41;;;;;;;7.63;7.03;;;30.50;33.00;;;;;;2626361;30;20378;-79
2021/10/08 10:57:32;;;;;;;7.80;7.10;;;30.30;34.30;;;;;;2628527;30;20848;-77
2021/10/08 11:00:24;;;;;;;8.60;7.47;;;30.90;33.30;;;;;;2629664;30;20391;-76
2021/10/08 11:03:12;;;;;;;8.00;7.20;;;30.10;33.70;;;;;;2628440;30;20454;-78
2021/10/08 11:06:05;;;;;;;8.20;7.47;;;28.90;35.70;;;;;;2630796;30;20770;-78
2021/10/08 11:08:31;;;;;;;9.83;7.50;;;28.70;36.30;;;;;;2628696;30;20367;-76
2021/10/08 11:11:20;;;;;;;9.33;8.07;;;29.10;35.80;;;;;;2628281;31;20379;-78
2021/10/08 11:14:17;;;;;;;9.00;8.10;;;28.60;35.70;;;;;;2627332;38;20709;-77
2021/10/08 11:16:43;;;;;;;8.50;7.70;;;28.10;37.10;;;;;;2628063;38;20921;-78
2021/10/08 11:19:41;;;;;;;8.63;6.70;;;28.50;37.40;;;;;;2627226;38;20355;-76
2021/10/08 11:22:08;;;;;;;10.10;7.07;;;28.20;36.40;;;;;;2629095;30;20913;-78
2021/10/08 11:24:34;;;;;;;7.97;6.00;;;28.30;37.50;;;;;;2628499;30;20366;-77
2021/10/08 11:27:02;;;;;;;9.93;8.20;;;28.10;37.40;;;;;;2629662;30;20391;-80
2021/10/08 11:29:38;;;;;;;12.50;8.50;;;28.40;36.60;;;;;;2627592;30;20385;-78
2021/10/08 11:32:13;;;;;;;9.50;7.50;;;27.80;38.40;;;;;;2627915;30;20362;-77
2021/10/08 11:34:54;;;;;;;8.00;7.27;;;28.20;37.40;;;;;;2628229;30;20885;-78
2021/10/08 11:37:21;;;;;;;10.43;8.90;;;28.30;37.00;;;;;;2626636;30;20387;-78
2021/10/08 11:39:48;;;;;;;9.90;8.97;;;27.70;37.60;;;;;;2625131;30;20382;-78
2021/10/08 11:42:16;;;;;;;10.87;8.13;;;27.80;37.50;;;;;;2626415;38;20406;-78
2021/10/08 11:45:04;;;;;;;10.07;7.33;;;28.50;36.60;;;;;;2626859;38;20502;-79
2021/10/08 11:52:13;;;;;;;;;;;;;;;;;;;;;
2021/10/08 11:55:39;;;;;;;8.13;7.33;;;30.20;34.60;;;;;;2625572;38;20382;-79
2021/10/08 11:59:09;;;;;;;8.33;6.83;;;30.00;34.80;;;;;;2627319;30;20398;-78
2021/10/08 12:03:06;;;;;;;;;;;;;;;;;;;;;
2021/10/08 12:18:17;;;;;;;8.87;6.80;;;28.60;37.30;;;;;;2625509;30;20470;-79
2021/10/08 12:21:15;;;;;;;10.97;6.97;;;28.90;36.80;;;;;;2626370;30;20860;-78
2021/10/08 12:23:58;;;;;;;7.97;7.20;;;28.60;36.60;;;;;;2626355;30;20467;-79
2021/10/08 12:26:38;;;;;;;9.27;7.40;;;27.60;37.40;;;;;;2625944;30;20475;-79
2021/10/08 12:30:00;;;;;;;8.10;7.40;;;28.10;38.10;;;;;;2624765;30;20393;-78
2021/10/08 12:33:06;;;;;;;7.37;6.77;;;28.40;37.90;;;;;;2625767;30;20370;-77
2021/10/08 12:36:02;;;;;;;;;;;;;;;;;;;;;
2021/10/08 12:42:27;;;;;;;7.20;6.60;;;28.90;36.90;;;;;;2626589;30;20367;-79
2021/10/08 12:44:58;;;;;;;11.20;6.10;;;29.30;35.30;;;;;;2627309;30;20523;-79
2021/10/08 12:50:24;;;;;;;8.73;7.83;;;29.50;35.70;;;;;;2625988;38;20477;-75
2021/10/08 12:53:56;;;;;;;;;;;;;;;;;;;;;
2021/10/08 12:57:20;;;;;;;10.07;7.07;;;29.00;36.70;;;;;;2625080;38;20836;-78
2021/10/08 13:00:43;;;;;;;6.90;6.30;;;28.50;37.10;;;;;;2625795;30;20909;-79
2021/10/08 13:03:38;;;;;;;7.20;6.60;;;28.60;37.90;;;;;;2623929;38;20506;-78
2021/10/08 13:06:25;;;;;;;7.33;6.60;;;28.00;38.60;;;;;;2625586;30;20356;-79
2021/10/08 13:09:21;;;;;;;8.33;7.53;;;27.20;39.30;;;;;;2625209;30;20422;-80
2021/10/08 13:12:12;;;;;;;7.50;6.40;;;27.00;40.10;;;;;;2626311;30;20378;-79
2021/10/08 13:14:38;;;;;;;6.83;6.23;;;27.30;39.70;;;;;;2625253;38;20911;-78
2021/10/08 13:17:16;;;;;;;6.63;6.03;;;27.60;39.30;;;;;;2624493;38;20228;-78
2021/10/08 13:19:42;;;;;;;8.90;6.30;;;28.80;38.30;;;;;;2625889;30;20802;-78
2021/10/08 13:22:08;;;;;;;7.43;6.77;;;29.00;37.00;;;;;;2625452;30;20444;-78
2021/10/08 13:24:34;;;;;;;6.17;5.63;;;29.10;36.70;;;;;;2625549;30;20281;-78
2021/10/08 13:27:00;;;;;;;7.73;7.13;;;27.30;39.40;;;;;;2625275;30;20239;-78